sensor_id;sensor_type;location;lat;lon;timestamp;pressure;altitude;pressure_sealevel;temperature;humidity
23996;BME280;12207;50.076;8.848;2022-10-28T00:00:24;100774.28;;;13.12;100.00
23996;BME280;12207;50.076;8.848;2022-10-28T00:02:51;100771.63;;;13.10;100.00
23996;BME280;12207;50.076;8.848;2022-10-28T00:05:17;100764.75;;;13.09;100.00
23996;BME280;12207;50.076;8.848;2022-10-28T00:07:44;100773.22;;;13.08;100.00
23996;BME280;12207;50.076;8.848;2022-10-28T00:10:10;100778.19;;;13.05;100.00
23996;BME280;12207;50.076;8.848;2022-10-28T00:12:37;100765.94;;;12.99;100.00
23996;BME280;12207;50.076;8.848;2022-10-28T00:15:03;100761.41;;;12.94;100.00
23996;BME280;12207;50.076;8.848;2022-10-28T00:17:30;100753.72;;;12.94;100.00
23996;BME280;12207;50.076;8.848;2022-10-28T00:19:57;100754.66;;;12.96;100.00
23996;BME280;12207;50.076;8.848;2022-10-28T00:22:23;100761.63;;;12.98;100.00
23996;BME280;12207;50.076;8.848;2022-10-28T00:24:50;100774.28;;;13.12;100.00
23996;BME280;12207;50.076;8.848;2022-10-28T00:27:16;100769.56;;;13.03;100.00
23996;BME280;12207;50.076;8.848;2022-10-28T00:29:43;100772.84;;;13.00;100.00
23996;BME280;12207;50.076;8.848;2022-10-28T00:32:09;100773.41;;;12.95;100.00
23996;BME280;12207;50.076;8.848;2022-10-28T00:34:36;100771.56;;;12.92;100.00
23996;BME280;12207;50.076;8.848;2022-10-28T00:37:02;100770.59;;;12.90;100.00
23996;BME280;12207;50.076;8.848;2022-10-28T00:39:29;100781.66;;;12.89;100.00
23996;BME280;12207;50.076;8.848;2022-10-28T00:41:56;100780.78;;;12.89;100.00
23996;BME280;12207;50.076;8.848;2022-10-28T00:47:02;100777.25;;;12.87;100.00
23996;BME280;12207;50.076;8.848;2022-10-28T00:49:30;100777.03;;;12.82;100.00
23996;BME280;12207;50.076;8.848;2022-10-28T00:51:59;100774.63;;;12.85;100.00
23996;BME280;12207;50.076;8.848;2022-10-28T00:54:27;100771.09;;;12.83;100.00
23996;BME280;12207;50.076;8.848;2022-10-28T00:56:55;100770.22;;;12.83;100.00
23996;BME280;12207;50.076;8.848;2022-10-28T00:59:24;100768.03;;;12.90;100.00
23996;BME280;12207;50.076;8.848;2022-10-28T01:01:51;100781.81;;;12.92;100.00
23996;BME280;12207;50.076;8.848;2022-10-28T01:04:18;100781.09;;;12.95;100.00
23996;BME280;12207;50.076;8.848;2022-10-28T01:06:46;100783.00;;;12.99;100.00
23996;BME280;12207;50.076;8.848;2022-10-28T01:09:13;100785.41;;;12.96;100.00
23996;BME280;12207;50.076;8.848;2022-10-28T01:14:31;100778.44;;;12.93;100.00
23996;BME280;12207;50.076;8.848;2022-10-28T01:17:15;100770.84;;;12.95;100.00
23996;BME280;12207;50.076;8.848;2022-10-28T01:19:52;100759.72;;;12.94;100.00
23996;BME280;12207;50.076;8.848;2022-10-28T01:22:26;100758.25;;;12.99;100.00
23996;BME280;12207;50.076;8.848;2022-10-28T01:25:03;100749.69;;;12.99;100.00
23996;BME280;12207;50.076;8.848;2022-10-28T01:30:21;100751.53;;;13.02;100.00
23996;BME280;12207;50.076;8.848;2022-10-28T01:35:20;100750.56;;;12.99;100.00
23996;BME280;12207;50.076;8.848;2022-10-28T01:40:32;100740.25;;;12.98;100.00
23996;BME280;12207;50.076;8.848;2022-10-28T01:45:27;100743.69;;;12.98;100.00
23996;BME280;12207;50.076;8.848;2022-10-28T01:47:57;100747.13;;;12.99;100.00
23996;BME280;12207;50.076;8.848;2022-10-28T01:50:33;100745.59;;;13.03;100.00
23996;BME280;12207;50.076;8.848;2022-10-28T01:53:10;100750.81;;;13.04;100.00
23996;BME280;12207;50.076;8.848;2022-10-28T01:55:39;100755.22;;;13.07;100.00
23996;BME280;12207;50.076;8.848;2022-10-28T01:58:07;100752.56;;;13.05;100.00
23996;BME280;12207;50.076;8.848;2022-10-28T02:00:35;100752.97;;;12.96;100.00
23996;BME280;12207;50.076;8.848;2022-10-28T02:03:04;100751.53;;;13.02;100.00
23996;BME280;12207;50.076;8.848;2022-10-28T02:05:45;100757.53;;;13.02;100.00
23996;BME280;12207;50.076;8.848;2022-10-28T02:08:27;100754.41;;;13.08;100.00
23996;BME280;12207;50.076;8.848;2022-10-28T02:16:17;100756.81;;;13.05;100.00
23996;BME280;12207;50.076;8.848;2022-10-28T02:21:32;100752.09;;;12.96;100.00
23996;BME280;12207;50.076;8.848;2022-10-28T02:26:32;100735.69;;;12.92;100.00
23996;BME280;12207;50.076;8.848;2022-10-28T02:31:36;100736.06;;;12.82;100.00
23996;BME280;12207;50.076;8.848;2022-10-28T02:34:28;100732.72;;;12.85;100.00
23996;BME280;12207;50.076;8.848;2022-10-28T02:36:53;100732.88;;;12.88;100.00
23996;BME280;12207;50.076;8.848;2022-10-28T02:39:26;100729.53;;;12.89;100.00
23996;BME280;12207;50.076;8.848;2022-10-28T02:41:55;100727.91;;;12.91;100.00
23996;BME280;12207;50.076;8.848;2022-10-28T02:44:25;100738.25;;;13.09;100.00
23996;BME280;12207;50.076;8.848;2022-10-28T02:46:54;100737.44;;;12.93;100.00
23996;BME280;12207;50.076;8.848;2022-10-28T02:49:23;100723.91;;;12.96;100.00
23996;BME280;12207;50.076;8.848;2022-10-28T02:51:51;100722.97;;;12.94;100.00
23996;BME280;12207;50.076;8.848;2022-10-28T02:54:23;100714.63;;;12.98;100.00
23996;BME280;12207;50.076;8.848;2022-10-28T02:56:55;100731.44;;;13.09;100.00
23996;BME280;12207;50.076;8.848;2022-10-28T02:59:24;100722.88;;;13.09;100.00
23996;BME280;12207;50.076;8.848;2022-10-28T03:01:51;100728.72;;;13.06;100.00
23996;BME280;12207;50.076;8.848;2022-10-28T03:04:17;100722.41;;;13.17;100.00
23996;BME280;12207;50.076;8.848;2022-10-28T03:06:43;100710.41;;;13.16;100.00
23996;BME280;12207;50.076;8.848;2022-10-28T03:09:10;100697.69;;;13.18;100.00
23996;BME280;12207;50.076;8.848;2022-10-28T03:11:37;100697.84;;;13.21;100.00
23996;BME280;12207;50.076;8.848;2022-10-28T03:14:03;100686.81;;;13.23;100.00
23996;BME280;12207;50.076;8.848;2022-10-28T03:16:30;100694.63;;;13.25;100.00
23996;BME280;12207;50.076;8.848;2022-10-28T03:18:56;100676.78;;;13.27;100.00
23996;BME280;12207;50.076;8.848;2022-10-28T03:21:23;100683.94;;;13.34;100.00
23996;BME280;12207;50.076;8.848;2022-10-28T03:23:49;100682.19;;;13.33;100.00
23996;BME280;12207;50.076;8.848;2022-10-28T03:26:16;100686.13;;;13.44;100.00
23996;BME280;12207;50.076;8.848;2022-10-28T03:28:42;100681.28;;;13.50;100.00
23996;BME280;12207;50.076;8.848;2022-10-28T03:31:09;100684.38;;;13.61;100.00
23996;BME280;12207;50.076;8.848;2022-10-28T03:33:35;100693.75;;;13.60;100.00
23996;BME280;12207;50.076;8.848;2022-10-28T03:36:02;100691.78;;;13.55;100.00
23996;BME280;12207;50.076;8.848;2022-10-28T03:38:28;100677.50;;;13.42;100.00
23996;BME280;12207;50.076;8.848;2022-10-28T03:40:55;100685.94;;;13.39;100.00
23996;BME280;12207;50.076;8.848;2022-10-28T03:43:21;100695.38;;;13.40;100.00
23996;BME280;12207;50.076;8.848;2022-10-28T03:45:48;100686.22;;;13.45;100.00
23996;BME280;12207;50.076;8.848;2022-10-28T03:48:14;100696.53;;;13.47;100.00
23996;BME280;12207;50.076;8.848;2022-10-28T03:50:41;100704.22;;;13.47;100.00
23996;BME280;12207;50.076;8.848;2022-10-28T03:53:07;100711.78;;;13.44;100.00
23996;BME280;12207;50.076;8.848;2022-10-28T03:55:34;100709.72;;;13.37;100.00
23996;BME280;12207;50.076;8.848;2022-10-28T03:58:00;100724.72;;;13.47;100.00
23996;BME280;12207;50.076;8.848;2022-10-28T04:00:27;100734.94;;;13.45;100.00
23996;BME280;12207;50.076;8.848;2022-10-28T04:02:53;100742.53;;;13.44;100.00
23996;BME280;12207;50.076;8.848;2022-10-28T04:05:20;100730.78;;;13.48;100.00
23996;BME280;12207;50.076;8.848;2022-10-28T04:07:47;100731.50;;;13.45;100.00
23996;BME280;12207;50.076;8.848;2022-10-28T04:10:13;100711.56;;;13.39;100.00
23996;BME280;12207;50.076;8.848;2022-10-28T04:12:40;100707.31;;;13.40;100.00
23996;BME280;12207;50.076;8.848;2022-10-28T04:15:06;100702.84;;;13.36;100.00
23996;BME280;12207;50.076;8.848;2022-10-28T04:17:33;100682.06;;;13.30;100.00
23996;BME280;12207;50.076;8.848;2022-10-28T04:20:00;100674.41;;;13.31;100.00
23996;BME280;12207;50.076;8.848;2022-10-28T04:22:26;100687.31;;;13.33;100.00
23996;BME280;12207;50.076;8.848;2022-10-28T04:24:53;100677.06;;;13.33;100.00
23996;BME280;12207;50.076;8.848;2022-10-28T04:27:20;100672.72;;;13.32;100.00
23996;BME280;12207;50.076;8.848;2022-10-28T04:29:46;100672.88;;;13.35;100.00
23996;BME280;12207;50.076;8.848;2022-10-28T04:32:13;100680.06;;;13.42;100.00
23996;BME280;12207;50.076;8.848;2022-10-28T04:34:39;100690.53;;;13.47;100.00
23996;BME280;12207;50.076;8.848;2022-10-28T04:37:06;100690.66;;;13.50;100.00
23996;BME280;12207;50.076;8.848;2022-10-28T04:39:32;100684.75;;;13.51;100.00
23996;BME280;12207;50.076;8.848;2022-10-28T04:41:59;100679.84;;;13.37;100.00
23996;BME280;12207;50.076;8.848;2022-10-28T04:44:25;100677.22;;;13.36;100.00
23996;BME280;12207;50.076;8.848;2022-10-28T04:46:54;100679.53;;;13.31;100.00
23996;BME280;12207;50.076;8.848;2022-10-28T04:49:20;100676.03;;;13.29;100.00
23996;BME280;12207;50.076;8.848;2022-10-28T04:51:47;100674.22;;;13.44;100.00
23996;BME280;12207;50.076;8.848;2022-10-28T04:54:13;100679.41;;;13.46;100.00
23996;BME280;12207;50.076;8.848;2022-10-28T04:56:40;100672.81;;;13.33;100.00
23996;BME280;12207;50.076;8.848;2022-10-28T04:59:06;100664.97;;;13.30;100.00
23996;BME280;12207;50.076;8.848;2022-10-28T05:01:33;100660.59;;;13.28;100.00
23996;BME280;12207;50.076;8.848;2022-10-28T05:03:59;100660.50;;;13.26;100.00
23996;BME280;12207;50.076;8.848;2022-10-28T05:06:26;100649.19;;;13.22;100.00
23996;BME280;12207;50.076;8.848;2022-10-28T05:08:52;100653.78;;;13.28;100.00
23996;BME280;12207;50.076;8.848;2022-10-28T05:11:19;100655.66;;;13.32;100.00
23996;BME280;12207;50.076;8.848;2022-10-28T05:13:45;100645.56;;;13.35;100.00
23996;BME280;12207;50.076;8.848;2022-10-28T05:16:12;100639.25;;;13.29;100.00
23996;BME280;12207;50.076;8.848;2022-10-28T05:18:39;100641.03;;;13.30;100.00
23996;BME280;12207;50.076;8.848;2022-10-28T05:21:05;100634.13;;;13.29;100.00
23996;BME280;12207;50.076;8.848;2022-10-28T05:23:32;100628.22;;;13.30;100.00
23996;BME280;12207;50.076;8.848;2022-10-28T05:25:58;100631.72;;;13.32;100.00
23996;BME280;12207;50.076;8.848;2022-10-28T05:28:25;100624.03;;;13.32;100.00
23996;BME280;12207;50.076;8.848;2022-10-28T05:30:51;100624.13;;;13.33;100.00
23996;BME280;12207;50.076;8.848;2022-10-28T05:33:18;100629.28;;;13.35;100.00
23996;BME280;12207;50.076;8.848;2022-10-28T05:35:44;100634.94;;;13.45;100.00
23996;BME280;12207;50.076;8.848;2022-10-28T05:38:11;100644.00;;;13.57;100.00
23996;BME280;12207;50.076;8.848;2022-10-28T05:40:38;100645.34;;;13.68;100.00
23996;BME280;12207;50.076;8.848;2022-10-28T05:43:04;100648.16;;;13.73;100.00
23996;BME280;12207;50.076;8.848;2022-10-28T05:45:31;100636.47;;;13.79;100.00
23996;BME280;12207;50.076;8.848;2022-10-28T05:47:58;100635.13;;;13.87;100.00
23996;BME280;12207;50.076;8.848;2022-10-28T05:50:24;100634.13;;;13.84;100.00
23996;BME280;12207;50.076;8.848;2022-10-28T05:52:52;100634.31;;;13.88;100.00
23996;BME280;12207;50.076;8.848;2022-10-28T05:55:19;100635.06;;;13.86;100.00
23996;BME280;12207;50.076;8.848;2022-10-28T05:57:46;100637.63;;;13.86;100.00
23996;BME280;12207;50.076;8.848;2022-10-28T06:00:13;100635.81;;;13.83;100.00
23996;BME280;12207;50.076;8.848;2022-10-28T06:02:40;100633.16;;;13.82;100.00
23996;BME280;12207;50.076;8.848;2022-10-28T06:05:07;100640.03;;;13.83;100.00
23996;BME280;12207;50.076;8.848;2022-10-28T06:07:34;100636.56;;;13.81;100.00
23996;BME280;12207;50.076;8.848;2022-10-28T06:10:02;100638.16;;;13.79;100.00
23996;BME280;12207;50.076;8.848;2022-10-28T06:12:29;100643.28;;;13.79;100.00
23996;BME280;12207;50.076;8.848;2022-10-28T06:14:55;100643.44;;;13.82;100.00
23996;BME280;12207;50.076;8.848;2022-10-28T06:17:22;100656.13;;;13.79;100.00
23996;BME280;12207;50.076;8.848;2022-10-28T06:19:48;100655.31;;;13.80;100.00
23996;BME280;12207;50.076;8.848;2022-10-28T06:22:15;100660.38;;;13.78;100.00
23996;BME280;12207;50.076;8.848;2022-10-28T06:24:41;100655.75;;;13.71;100.00
23996;BME280;12207;50.076;8.848;2022-10-28T06:27:08;100662.53;;;13.69;100.00
23996;BME280;12207;50.076;8.848;2022-10-28T06:29:34;100658.03;;;13.65;100.00
23996;BME280;12207;50.076;8.848;2022-10-28T06:32:01;100665.75;;;13.65;100.00
23996;BME280;12207;50.076;8.848;2022-10-28T06:34:27;100669.25;;;13.67;100.00
23996;BME280;12207;50.076;8.848;2022-10-28T06:36:54;100667.19;;;13.78;100.00
23996;BME280;12207;50.076;8.848;2022-10-28T06:39:20;100653.69;;;13.82;100.00
23996;BME280;12207;50.076;8.848;2022-10-28T06:41:47;100664.97;;;13.85;100.00
23996;BME280;12207;50.076;8.848;2022-10-28T06:44:13;100662.03;;;13.96;100.00
23996;BME280;12207;50.076;8.848;2022-10-28T06:46:40;100678.97;;;14.11;100.00
23996;BME280;12207;50.076;8.848;2022-10-28T06:49:06;100680.66;;;14.30;100.00
23996;BME280;12207;50.076;8.848;2022-10-28T06:51:34;100678.72;;;14.44;100.00
23996;BME280;12207;50.076;8.848;2022-10-28T06:54:00;100680.00;;;14.54;100.00
23996;BME280;12207;50.076;8.848;2022-10-28T06:56:27;100684.53;;;14.59;100.00
23996;BME280;12207;50.076;8.848;2022-10-28T06:58:53;100682.16;;;14.64;100.00
23996;BME280;12207;50.076;8.848;2022-10-28T07:01:21;100688.22;;;14.66;100.00
23996;BME280;12207;50.076;8.848;2022-10-28T07:03:48;100682.47;;;14.72;100.00
23996;BME280;12207;50.076;8.848;2022-10-28T07:06:15;100681.25;;;14.83;100.00
23996;BME280;12207;50.076;8.848;2022-10-28T07:08:41;100673.03;;;14.92;100.00
23996;BME280;12207;50.076;8.848;2022-10-28T07:11:08;100682.13;;;15.04;100.00
23996;BME280;12207;50.076;8.848;2022-10-28T07:13:35;100684.06;;;15.10;100.00
23996;BME280;12207;50.076;8.848;2022-10-28T07:16:01;100691.47;;;15.23;100.00
23996;BME280;12207;50.076;8.848;2022-10-28T07:18:28;100690.97;;;15.32;100.00
23996;BME280;12207;50.076;8.848;2022-10-28T07:20:58;100692.59;;;15.30;100.00
23996;BME280;12207;50.076;8.848;2022-10-28T07:23:25;100694.47;;;15.34;100.00
23996;BME280;12207;50.076;8.848;2022-10-28T07:25:52;100691.09;;;15.35;100.00
23996;BME280;12207;50.076;8.848;2022-10-28T07:28:19;100693.31;;;15.26;100.00
23996;BME280;12207;50.076;8.848;2022-10-28T07:30:46;100691.34;;;15.20;100.00
23996;BME280;12207;50.076;8.848;2022-10-28T07:33:12;100689.59;;;15.19;100.00
23996;BME280;12207;50.076;8.848;2022-10-28T07:35:39;100697.13;;;15.15;100.00
23996;BME280;12207;50.076;8.848;2022-10-28T07:38:06;100696.13;;;15.11;100.00
23996;BME280;12207;50.076;8.848;2022-10-28T07:40:34;100708.59;;;15.23;100.00
23996;BME280;12207;50.076;8.848;2022-10-28T07:43:00;100707.63;;;15.42;100.00
23996;BME280;12207;50.076;8.848;2022-10-28T07:45:27;100705.06;;;15.42;100.00
23996;BME280;12207;50.076;8.848;2022-10-28T07:47:53;100708.38;;;15.39;100.00
23996;BME280;12207;50.076;8.848;2022-10-28T07:50:20;100708.59;;;15.44;100.00
23996;BME280;12207;50.076;8.848;2022-10-28T07:52:46;100708.94;;;15.53;100.00
23996;BME280;12207;50.076;8.848;2022-10-28T07:55:13;100707.25;;;15.54;100.00
23996;BME280;12207;50.076;8.848;2022-10-28T07:57:39;100712.19;;;15.70;100.00
23996;BME280;12207;50.076;8.848;2022-10-28T08:00:06;100712.53;;;15.79;100.00
23996;BME280;12207;50.076;8.848;2022-10-28T08:02:33;100715.06;;;15.78;100.00
23996;BME280;12207;50.076;8.848;2022-10-28T08:05:00;100712.63;;;15.81;100.00
23996;BME280;12207;50.076;8.848;2022-10-28T08:07:27;100710.69;;;15.98;100.00
23996;BME280;12207;50.076;8.848;2022-10-28T08:09:54;100708.50;;;16.08;100.00
23996;BME280;12207;50.076;8.848;2022-10-28T08:12:20;100706.44;;;16.22;100.00
23996;BME280;12207;50.076;8.848;2022-10-28T08:14:47;100699.91;;;16.32;100.00
23996;BME280;12207;50.076;8.848;2022-10-28T08:17:13;100704.97;;;16.29;100.00
23996;BME280;12207;50.076;8.848;2022-10-28T08:19:40;100707.72;;;16.33;100.00
23996;BME280;12207;50.076;8.848;2022-10-28T08:22:06;100709.03;;;16.46;100.00
23996;BME280;12207;50.076;8.848;2022-10-28T08:24:33;100715.59;;;16.62;100.00
23996;BME280;12207;50.076;8.848;2022-10-28T08:27:00;100715.28;;;16.77;100.00
23996;BME280;12207;50.076;8.848;2022-10-28T08:29:26;100711.63;;;16.96;100.00
23996;BME280;12207;50.076;8.848;2022-10-28T08:31:53;100712.50;;;16.96;100.00
23996;BME280;12207;50.076;8.848;2022-10-28T08:34:19;100716.44;;;17.11;100.00
23996;BME280;12207;50.076;8.848;2022-10-28T08:36:46;100717.34;;;17.13;100.00
23996;BME280;12207;50.076;8.848;2022-10-28T08:39:13;100712.94;;;17.36;100.00
23996;BME280;12207;50.076;8.848;2022-10-28T08:41:42;100707.28;;;17.47;100.00
23996;BME280;12207;50.076;8.848;2022-10-28T08:49:03;100710.31;;;18.18;100.00
23996;BME280;12207;50.076;8.848;2022-10-28T08:51:37;100701.47;;;18.10;100.00
23996;BME280;12207;50.076;8.848;2022-10-28T08:57:03;100706.22;;;17.69;100.00
23996;BME280;12207;50.076;8.848;2022-10-28T08:59:33;100698.38;;;17.65;100.00
23996;BME280;12207;50.076;8.848;2022-10-28T09:02:20;100705.94;;;17.60;100.00
23996;BME280;12207;50.076;8.848;2022-10-28T09:04:58;100710.44;;;17.66;100.00
23996;BME280;12207;50.076;8.848;2022-10-28T09:07:35;100721.81;;;17.72;100.00
23996;BME280;12207;50.076;8.848;2022-10-28T09:10:04;100711.00;;;17.84;100.00
23996;BME280;12207;50.076;8.848;2022-10-28T09:15:03;100708.69;;;17.92;100.00
23996;BME280;12207;50.076;8.848;2022-10-28T09:31:05;100712.09;;;18.51;100.00
23996;BME280;12207;50.076;8.848;2022-10-28T09:33:47;100710.91;;;18.72;100.00
23996;BME280;12207;50.076;8.848;2022-10-28T09:36:18;100712.13;;;18.84;100.00
23996;BME280;12207;50.076;8.848;2022-10-28T09:38:46;100717.31;;;18.84;100.00
23996;BME280;12207;50.076;8.848;2022-10-28T09:41:15;100707.63;;;19.10;100.00
23996;BME280;12207;50.076;8.848;2022-10-28T09:43:52;100703.53;;;19.19;100.00
23996;BME280;12207;50.076;8.848;2022-10-28T09:46:20;100702.63;;;19.18;100.00
23996;BME280;12207;50.076;8.848;2022-10-28T09:48:51;100697.91;;;19.37;100.00
23996;BME280;12207;50.076;8.848;2022-10-28T09:51:32;100707.28;;;19.68;100.00
23996;BME280;12207;50.076;8.848;2022-10-28T09:53:59;100712.28;;;19.99;100.00
23996;BME280;12207;50.076;8.848;2022-10-28T09:56:27;100702.31;;;20.62;100.00
23996;BME280;12207;50.076;8.848;2022-10-28T09:58:55;100702.66;;;21.33;100.00
23996;BME280;12207;50.076;8.848;2022-10-28T10:01:23;100708.09;;;21.47;98.76
23996;BME280;12207;50.076;8.848;2022-10-28T10:03:50;100706.34;;;21.45;95.22
23996;BME280;12207;50.076;8.848;2022-10-28T10:06:18;100712.97;;;21.83;96.48
23996;BME280;12207;50.076;8.848;2022-10-28T10:11:30;100713.75;;;22.46;92.93
23996;BME280;12207;50.076;8.848;2022-10-28T10:13:59;100725.94;;;22.49;92.86
23996;BME280;12207;50.076;8.848;2022-10-28T10:18:58;100712.88;;;21.79;92.74
23996;BME280;12207;50.076;8.848;2022-10-28T10:21:38;100712.09;;;21.28;97.37
23996;BME280;12207;50.076;8.848;2022-10-28T10:24:48;100709.22;;;21.10;100.00
23996;BME280;12207;50.076;8.848;2022-10-28T10:27:03;100713.13;;;21.36;99.38
23996;BME280;12207;50.076;8.848;2022-10-28T10:29:42;100716.13;;;21.64;96.49
23996;BME280;12207;50.076;8.848;2022-10-28T10:32:14;100713.16;;;22.00;96.12
23996;BME280;12207;50.076;8.848;2022-10-28T10:34:46;100716.25;;;21.73;95.68
23996;BME280;12207;50.076;8.848;2022-10-28T10:37:17;100708.44;;;21.70;95.87
23996;BME280;12207;50.076;8.848;2022-10-28T10:39:49;100710.69;;;21.47;95.18
23996;BME280;12207;50.076;8.848;2022-10-28T10:42:24;100702.31;;;21.68;97.70
23996;BME280;12207;50.076;8.848;2022-10-28T10:44:57;100694.75;;;21.83;96.80
23996;BME280;12207;50.076;8.848;2022-10-28T10:47:24;100696.78;;;22.06;93.29
23996;BME280;12207;50.076;8.848;2022-10-28T10:49:51;100691.19;;;22.44;92.64
23996;BME280;12207;50.076;8.848;2022-10-28T10:52:21;100695.06;;;22.86;89.14
23996;BME280;12207;50.076;8.848;2022-10-28T10:54:56;100686.72;;;23.22;86.61
23996;BME280;12207;50.076;8.848;2022-10-28T10:57:23;100687.47;;;23.07;90.32
23996;BME280;12207;50.076;8.848;2022-10-28T10:59:51;100677.81;;;22.95;88.41
23996;BME280;12207;50.076;8.848;2022-10-28T11:02:22;100678.81;;;23.08;88.24
23996;BME280;12207;50.076;8.848;2022-10-28T11:04:50;100678.84;;;23.13;89.74
23996;BME280;12207;50.076;8.848;2022-10-28T11:07:20;100678.81;;;22.23;90.03
23996;BME280;12207;50.076;8.848;2022-10-28T11:09:50;100673.06;;;22.53;91.10
23996;BME280;12207;50.076;8.848;2022-10-28T11:12:33;100670.31;;;22.39;90.51
23996;BME280;12207;50.076;8.848;2022-10-28T11:15:19;100669.63;;;22.57;94.33
23996;BME280;12207;50.076;8.848;2022-10-28T11:17:59;100656.56;;;22.51;92.45
23996;BME280;12207;50.076;8.848;2022-10-28T11:25:55;100668.38;;;22.21;94.65
23996;BME280;12207;50.076;8.848;2022-10-28T11:28:34;100657.78;;;22.06;95.24
23996;BME280;12207;50.076;8.848;2022-10-28T11:31:18;100654.41;;;22.13;94.03
23996;BME280;12207;50.076;8.848;2022-10-28T11:36:19;100650.53;;;22.53;93.84
23996;BME280;12207;50.076;8.848;2022-10-28T11:39:13;100641.09;;;22.65;93.46
23996;BME280;12207;50.076;8.848;2022-10-28T11:42:04;100636.84;;;22.78;93.24
23996;BME280;12207;50.076;8.848;2022-10-28T11:52:21;100632.97;;;23.35;90.53
23996;BME280;12207;50.076;8.848;2022-10-28T12:11:00;100600.59;;;22.96;93.46
23996;BME280;12207;50.076;8.848;2022-10-28T12:13:37;100601.28;;;22.75;94.18
23996;BME280;12207;50.076;8.848;2022-10-28T12:18:39;100613.50;;;22.82;93.98
23996;BME280;12207;50.076;8.848;2022-10-28T12:23:39;100603.09;;;22.85;92.58
23996;BME280;12207;50.076;8.848;2022-10-28T12:26:09;100598.75;;;22.86;94.13
23996;BME280;12207;50.076;8.848;2022-10-28T12:28:42;100596.06;;;22.73;94.41
23996;BME280;12207;50.076;8.848;2022-10-28T12:31:24;100586.31;;;22.46;95.48
23996;BME280;12207;50.076;8.848;2022-10-28T12:33:54;100581.16;;;22.54;96.14
23996;BME280;12207;50.076;8.848;2022-10-28T12:36:23;100581.25;;;22.65;96.80
23996;BME280;12207;50.076;8.848;2022-10-28T12:38:56;100585.75;;;22.86;94.73
23996;BME280;12207;50.076;8.848;2022-10-28T12:41:26;100577.09;;;22.90;94.62
23996;BME280;12207;50.076;8.848;2022-10-28T12:44:07;100575.28;;;22.77;93.58
23996;BME280;12207;50.076;8.848;2022-10-28T12:46:47;100572.53;;;22.58;95.44
23996;BME280;12207;50.076;8.848;2022-10-28T12:49:40;100576.91;;;22.65;96.49
23996;BME280;12207;50.076;8.848;2022-10-28T12:52:08;100572.66;;;22.75;96.57
23996;BME280;12207;50.076;8.848;2022-10-28T12:54:46;100569.19;;;22.78;96.36
23996;BME280;12207;50.076;8.848;2022-10-28T12:57:15;100553.59;;;22.81;95.55
23996;BME280;12207;50.076;8.848;2022-10-28T12:59:47;100557.94;;;22.75;96.04
23996;BME280;12207;50.076;8.848;2022-10-28T13:02:18;100562.25;;;22.77;95.25
23996;BME280;12207;50.076;8.848;2022-10-28T13:04:47;100554.47;;;22.77;96.65
23996;BME280;12207;50.076;8.848;2022-10-28T13:07:22;100555.41;;;22.85;94.69
23996;BME280;12207;50.076;8.848;2022-10-28T13:12:31;100550.22;;;22.88;95.38
23996;BME280;12207;50.076;8.848;2022-10-28T13:15:08;100551.06;;;22.90;95.39
23996;BME280;12207;50.076;8.848;2022-10-28T13:23:42;100548.38;;;22.76;98.23
23996;BME280;12207;50.076;8.848;2022-10-28T13:28:52;100564.09;;;22.93;100.00
23996;BME280;12207;50.076;8.848;2022-10-28T13:31:20;100568.25;;;22.69;95.68
23996;BME280;12207;50.076;8.848;2022-10-28T13:33:49;100551.84;;;22.73;98.46
23996;BME280;12207;50.076;8.848;2022-10-28T13:36:18;100557.16;;;22.89;83.38
23996;BME280;12207;50.076;8.848;2022-10-28T13:38:49;100558.00;;;22.89;84.77
23996;BME280;12207;50.076;8.848;2022-10-28T13:43:56;100564.75;;;22.63;100.00
23996;BME280;12207;50.076;8.848;2022-10-28T13:54:50;100551.94;;;22.89;100.00
23996;BME280;12207;50.076;8.848;2022-10-28T13:57:31;100541.59;;;22.95;92.61
23996;BME280;12207;50.076;8.848;2022-10-28T14:00:00;100553.78;;;23.05;89.00
23996;BME280;12207;50.076;8.848;2022-10-28T14:04:58;100549.47;;;23.04;86.92
23996;BME280;12207;50.076;8.848;2022-10-28T14:07:30;100558.13;;;23.00;81.90
23996;BME280;12207;50.076;8.848;2022-10-28T14:09:59;100550.25;;;22.94;87.68
23996;BME280;12207;50.076;8.848;2022-10-28T14:12:41;100544.97;;;22.86;90.01
23996;BME280;12207;50.076;8.848;2022-10-28T14:17:44;100549.16;;;22.66;98.35
23996;BME280;12207;50.076;8.848;2022-10-28T14:20:21;100556.03;;;22.56;94.68
23996;BME280;12207;50.076;8.848;2022-10-28T14:22:48;100561.94;;;22.40;97.41
23996;BME280;12207;50.076;8.848;2022-10-28T14:28:01;100544.50;;;22.25;93.92
23996;BME280;12207;50.076;8.848;2022-10-28T14:30:28;100554.22;;;22.46;86.87
23996;BME280;12207;50.076;8.848;2022-10-28T14:32:55;100562.94;;;22.52;93.96
23996;BME280;12207;50.076;8.848;2022-10-28T14:35:36;100559.53;;;22.60;81.41
23996;BME280;12207;50.076;8.848;2022-10-28T14:38:27;100562.16;;;22.66;81.48
23996;BME280;12207;50.076;8.848;2022-10-28T14:49:11;100568.16;;;22.52;81.76
23996;BME280;12207;50.076;8.848;2022-10-28T14:54:08;100563.75;;;22.48;81.05
23996;BME280;12207;50.076;8.848;2022-10-28T14:56:37;100553.38;;;22.50;79.47
23996;BME280;12207;50.076;8.848;2022-10-28T14:59:16;100547.28;;;22.43;81.02
23996;BME280;12207;50.076;8.848;2022-10-28T15:02:00;100555.00;;;22.39;81.52
23996;BME280;12207;50.076;8.848;2022-10-28T15:04:27;100560.97;;;22.27;81.96
23996;BME280;12207;50.076;8.848;2022-10-28T15:06:54;100557.38;;;22.14;85.22
23996;BME280;12207;50.076;8.848;2022-10-28T15:09:31;100557.22;;;21.99;92.23